Time;durP1;ratioP1;P1;durP2;ratioP2;P2;SDS_P1;SDS_P2;PMS_P1;PMS_P2;Temp;Humidity;BMP_temperature;BMP_pressure;BME280_temperature;BME280_humidity;BME280_pressure;Samples;Min_cycle;Max_cycle;Signal;HPM_P1;HPM_P2
2022/07/25 00:02:04;;;;;;;5.28;2.22;;;22.50;98.50;;;;;;4834397;29;36583;-61
2022/07/25 00:04:31;;;;;;;3.80;2.15;;;22.50;98.40;;;;;;4837095;29;36293;-62
2022/07/25 00:06:58;;;;;;;4.78;2.33;;;22.50;98.40;;;;;;4837595;29;39154;-61
2022/07/25 00:09:26;;;;;;;3.95;2.30;;;22.50;98.40;;;;;;4837999;29;40264;-61
2022/07/25 00:11:53;;;;;;;5.25;2.78;;;22.50;98.30;;;;;;4837721;29;35202;-61
2022/07/25 00:14:22;;;;;;;5.07;2.55;;;22.50;98.40;;;;;;4837458;29;37924;-62
2022/07/25 00:16:49;;;;;;;6.63;2.50;;;22.50;98.30;;;;;;4837488;29;38981;-62
2022/07/25 00:19:17;;;;;;;4.35;2.47;;;22.50;98.30;;;;;;4837534;29;38873;-62
2022/07/25 00:21:44;;;;;;;6.90;2.60;;;22.50;98.30;;;;;;4837463;29;38032;-62
2022/07/25 00:24:11;;;;;;;6.10;2.72;;;22.60;98.30;;;;;;4836831;29;38336;-62
2022/07/25 00:26:39;;;;;;;8.30;3.00;;;22.60;98.30;;;;;;4837083;29;38541;-61
2022/07/25 00:29:06;;;;;;;6.50;2.67;;;22.60;98.30;;;;;;4836411;29;37762;-61
2022/07/25 00:31:35;;;;;;;4.72;2.78;;;22.60;98.30;;;;;;4835666;29;36452;-61
2022/07/25 00:34:02;;;;;;;5.88;2.53;;;22.60;98.30;;;;;;4836833;29;37098;-61
2022/07/25 00:36:30;;;;;;;6.32;2.72;;;22.50;98.30;;;;;;4837313;29;38800;-61
2022/07/25 00:38:57;;;;;;;5.10;2.42;;;22.50;98.30;;;;;;4837645;29;37479;-62
2022/07/25 00:41:26;;;;;;;4.47;2.85;;;22.50;98.30;;;;;;4835925;29;36329;-62
2022/07/25 00:43:54;;;;;;;5.07;2.55;;;22.50;98.30;;;;;;4835524;29;38020;-62
2022/07/25 00:46:21;;;;;;;4.20;2.25;;;22.50;98.20;;;;;;4836187;29;39752;-61
2022/07/25 00:48:50;;;;;;;6.10;2.90;;;22.50;98.20;;;;;;4837989;29;36789;-62
2022/07/25 00:51:17;;;;;;;5.60;2.83;;;22.50;98.20;;;;;;4836612;29;35496;-62
2022/07/25 00:53:45;;;;;;;5.70;2.78;;;22.50;98.30;;;;;;4835553;29;37285;-62
2022/07/25 00:56:12;;;;;;;5.50;3.15;;;22.50;98.20;;;;;;4835940;29;38060;-61
2022/07/25 00:58:39;;;;;;;5.00;2.75;;;22.50;98.10;;;;;;4836130;29;36486;-61
2022/07/25 01:01:07;;;;;;;4.97;2.92;;;22.50;98.10;;;;;;4835982;29;36758;-62
2022/07/25 01:03:34;;;;;;;5.35;2.88;;;22.50;98.10;;;;;;4837022;29;36593;-61
2022/07/25 01:06:03;;;;;;;5.18;3.15;;;22.50;98.10;;;;;;4836900;29;37798;-62
2022/07/25 01:08:31;;;;;;;4.32;2.50;;;22.50;98.10;;;;;;4837394;29;37722;-62
2022/07/25 01:10:58;;;;;;;5.35;3.13;;;22.50;98.20;;;;;;4836949;29;36611;-62
2022/07/25 01:13:25;;;;;;;5.15;2.65;;;22.50;98.20;;;;;;4835043;29;37313;-61
2022/07/25 01:15:53;;;;;;;4.60;2.75;;;22.40;98.10;;;;;;4834455;29;36958;-62
2022/07/25 01:18:22;;;;;;;4.82;2.85;;;22.40;98.30;;;;;;4836880;29;37962;-61
2022/07/25 01:20:51;;;;;;;5.65;3.42;;;22.40;98.30;;;;;;4836837;29;35304;-62
2022/07/25 01:23:18;;;;;;;5.18;2.55;;;22.40;98.20;;;;;;4835804;29;37410;-61
2022/07/25 01:25:45;;;;;;;6.57;3.45;;;22.40;98.40;;;;;;4836272;29;37730;-62
2022/07/25 01:28:13;;;;;;;6.53;3.42;;;22.30;98.40;;;;;;4835089;29;37737;-62
2022/07/25 01:30:40;;;;;;;7.63;3.20;;;22.30;98.30;;;;;;4835145;29;35266;-62
2022/07/25 01:33:08;;;;;;;4.65;3.00;;;22.40;98.30;;;;;;4833758;29;38090;-61
2022/07/25 01:35:35;;;;;;;7.32;3.22;;;22.30;98.30;;;;;;4833172;29;39019;-62
2022/07/25 01:38:04;;;;;;;5.75;3.60;;;22.30;98.30;;;;;;4833233;29;36461;-62
2022/07/25 01:40:31;;;;;;;6.63;3.38;;;22.30;98.40;;;;;;4833769;29;35304;-62
2022/07/25 01:42:58;;;;;;;7.38;3.85;;;22.30;98.40;;;;;;4831611;29;40728;-62
2022/07/25 01:45:26;;;;;;;5.47;3.63;;;22.30;98.40;;;;;;4833418;29;39648;-62
2022/07/25 01:47:53;;;;;;;6.43;3.90;;;22.20;98.50;;;;;;4833804;29;37811;-62
2022/07/25 01:50:20;;;;;;;6.70;3.78;;;22.20;98.50;;;;;;4833444;29;37041;-61
2022/07/25 01:52:48;;;;;;;6.47;4.03;;;22.20;98.50;;;;;;4834007;29;38100;-61
2022/07/25 01:55:16;;;;;;;6.30;3.60;;;22.20;98.70;;;;;;4833110;29;39378;-62
2022/07/25 01:57:44;;;;;;;8.43;3.53;;;22.10;98.80;;;;;;4832794;29;37264;-61
2022/07/25 02:00:13;;;;;;;6.15;3.53;;;22.00;99.10;;;;;;4834374;29;36315;-62
2022/07/25 02:02:41;;;;;;;7.18;4.25;;;22.00;99.20;;;;;;4833592;29;37676;-62
2022/07/25 02:05:13;;;;;;;6.18;4.20;;;21.90;99.40;;;;;;4833396;29;40297;-61
2022/07/25 02:07:41;;;;;;;5.60;3.33;;;21.90;99.50;;;;;;4839843;29;38387;-61
2022/07/25 02:10:09;;;;;;;6.35;3.42;;;21.90;99.40;;;;;;4833663;29;36486;-62
2022/07/25 02:12:37;;;;;;;6.30;3.83;;;21.90;99.40;;;;;;4834723;29;38270;-62
2022/07/25 02:15:06;;;;;;;6.82;3.78;;;21.80;99.50;;;;;;4836159;29;40105;-61
2022/07/25 02:17:33;;;;;;;8.60;3.40;;;21.80;99.60;;;;;;4835869;29;38301;-61
2022/07/25 02:20:00;;;;;;;6.38;3.70;;;21.80;99.80;;;;;;4835312;29;36432;-62
2022/07/25 02:22:28;;;;;;;6.95;4.18;;;21.80;99.90;;;;;;4834248;29;37606;-61
2022/07/25 02:24:55;;;;;;;6.07;3.60;;;21.70;99.90;;;;;;4832585;29;38637;-62
2022/07/25 02:27:22;;;;;;;5.05;3.47;;;21.70;99.90;;;;;;4834596;29;37910;-62
2022/07/25 02:29:51;;;;;;;5.93;3.90;;;21.70;99.90;;;;;;4834826;29;37049;-61
2022/07/25 02:32:18;;;;;;;6.18;4.07;;;21.70;99.90;;;;;;4835567;29;37513;-61
2022/07/25 02:34:46;;;;;;;6.63;3.78;;;21.60;99.90;;;;;;4838707;29;36809;-61
2022/07/25 02:37:13;;;;;;;6.90;3.28;;;21.60;99.90;;;;;;4838257;29;39175;-62
2022/07/25 02:39:40;;;;;;;7.32;4.05;;;21.60;99.90;;;;;;4838407;29;36552;-61
2022/07/25 02:42:08;;;;;;;6.72;3.75;;;21.60;99.90;;;;;;4838294;29;37411;-61
2022/07/25 02:44:35;;;;;;;7.07;4.18;;;21.60;99.90;;;;;;4837964;29;38515;-62
2022/07/25 02:47:04;;;;;;;6.57;3.70;;;21.60;99.90;;;;;;4836764;29;36474;-61
2022/07/25 02:49:31;;;;;;;5.78;4.00;;;21.60;99.90;;;;;;4838785;29;36321;-62
2022/07/25 02:51:58;;;;;;;8.25;4.68;;;21.60;99.90;;;;;;4836744;29;38864;-61
2022/07/25 02:54:26;;;;;;;6.38;4.55;;;21.60;99.90;;;;;;4837293;29;38558;-62
2022/07/25 02:56:53;;;;;;;6.50;3.90;;;21.60;99.90;;;;;;4838791;29;36631;-61
2022/07/25 02:59:21;;;;;;;6.65;4.18;;;21.60;99.90;;;;;;4838356;29;36756;-62
2022/07/25 03:01:48;;;;;;;5.43;3.25;;;21.60;99.90;;;;;;4838244;29;37619;-61
2022/07/25 03:04:17;;;;;;;6.35;4.20;;;21.60;99.90;;;;;;4838163;29;37772;-61
2022/07/25 03:06:44;;;;;;;5.78;3.83;;;21.60;99.90;;;;;;4839264;29;38169;-62
2022/07/25 03:09:11;;;;;;;9.73;4.80;;;21.50;99.90;;;;;;4838069;29;36994;-61
2022/07/25 03:11:39;;;;;;;6.32;3.75;;;21.50;99.90;;;;;;4837202;29;38319;-61
2022/07/25 03:14:08;;;;;;;8.77;4.60;;;21.50;99.90;;;;;;4838825;29;37837;-62
2022/07/25 03:16:35;;;;;;;9.15;4.40;;;21.50;99.90;;;;;;4836867;29;36507;-61
2022/07/25 03:19:03;;;;;;;9.98;5.25;;;21.50;99.90;;;;;;4838159;29;37389;-61
2022/07/25 03:21:31;;;;;;;8.90;5.35;;;21.50;99.90;;;;;;4836573;29;39480;-61
2022/07/25 03:23:59;;;;;;;8.82;4.70;;;21.50;99.90;;;;;;4838120;29;37944;-61
2022/07/25 03:26:26;;;;;;;7.53;4.80;;;21.50;99.90;;;;;;4838423;29;36522;-61
2022/07/25 03:28:53;;;;;;;10.10;5.18;;;21.40;99.90;;;;;;4837732;29;36946;-61
2022/07/25 03:31:21;;;;;;;6.60;5.07;;;21.40;99.90;;;;;;4837429;29;37390;-61
2022/07/25 03:33:48;;;;;;;7.78;5.88;;;21.50;99.90;;;;;;4838727;29;38762;-61
2022/07/25 03:36:15;;;;;;;9.25;6.85;;;21.40;99.90;;;;;;4838485;29;37790;-61
2022/07/25 03:38:44;;;;;;;9.73;5.63;;;21.50;99.90;;;;;;4837657;29;36627;-61
2022/07/25 03:41:12;;;;;;;8.82;5.75;;;21.40;99.90;;;;;;4836816;29;38527;-61
2022/07/25 03:43:39;;;;;;;7.75;6.03;;;21.40;99.90;;;;;;4836962;29;37001;-61
2022/07/25 03:46:07;;;;;;;9.02;6.40;;;21.30;99.90;;;;;;4838029;29;37906;-62
2022/07/25 03:48:34;;;;;;;10.77;6.03;;;21.30;99.90;;;;;;4837777;29;36445;-61
2022/07/25 03:51:01;;;;;;;9.40;6.15;;;21.30;99.90;;;;;;4837187;29;38383;-62
2022/07/25 03:53:29;;;;;;;11.20;7.03;;;21.30;99.90;;;;;;4837264;29;38280;-61
2022/07/25 03:55:57;;;;;;;7.72;5.97;;;21.30;99.90;;;;;;4835966;29;37733;-61
2022/07/25 03:58:25;;;;;;;12.45;6.65;;;21.30;99.90;;;;;;4837810;29;36458;-61
2022/07/25 04:00:52;;;;;;;9.65;7.03;;;21.40;99.90;;;;;;4837316;29;38014;-61
2022/07/25 04:03:20;;;;;;;8.95;5.95;;;21.40;99.90;;;;;;4838595;29;37902;-61
2022/07/25 04:05:47;;;;;;;11.00;7.30;;;21.40;99.90;;;;;;4837328;29;38617;-61
2022/07/25 04:08:17;;;;;;;8.23;6.57;;;21.40;99.90;;;;;;4836939;29;35346;-61
2022/07/25 04:10:45;;;;;;;9.48;7.07;;;21.40;99.90;;;;;;4836354;29;37706;-61
2022/07/25 04:13:14;;;;;;;7.90;5.85;;;21.40;99.90;;;;;;4837428;29;38315;-61
2022/07/25 04:15:41;;;;;;;10.65;7.07;;;21.40;99.90;;;;;;4837392;29;38486;-62
2022/07/25 04:18:08;;;;;;;9.18;6.65;;;21.30;99.90;;;;;;4837534;29;36372;-61
2022/07/25 04:20:36;;;;;;;9.32;7.43;;;21.40;99.90;;;;;;4836845;29;37317;-62
2022/07/25 04:23:03;;;;;;;10.57;7.15;;;21.40;99.90;;;;;;4836132;29;38015;-61
2022/07/25 04:25:30;;;;;;;15.88;7.90;;;21.40;99.90;;;;;;4837030;29;37664;-62
2022/07/25 04:27:58;;;;;;;11.07;8.07;;;21.40;99.90;;;;;;4837516;29;36620;-61
2022/07/25 04:30:27;;;;;;;9.25;7.38;;;21.40;99.90;;;;;;4836363;29;35639;-61
2022/07/25 04:32:55;;;;;;;11.10;6.75;;;21.40;99.90;;;;;;4836735;29;37026;-62
2022/07/25 04:35:22;;;;;;;11.80;8.10;;;21.40;99.90;;;;;;4836528;29;36636;-61
2022/07/25 04:37:49;;;;;;;9.57;7.55;;;21.40;99.90;;;;;;4837148;29;37314;-62
2022/07/25 04:40:18;;;;;;;10.80;7.80;;;21.50;99.90;;;;;;4837354;29;20191;-61
2022/07/25 04:42:45;;;;;;;9.75;7.15;;;21.50;99.90;;;;;;4837106;29;39006;-61
2022/07/25 04:45:13;;;;;;;11.25;7.75;;;21.50;99.90;;;;;;4836443;29;39024;-68
2022/07/25 04:47:41;;;;;;;13.35;8.23;;;21.60;99.90;;;;;;4837647;29;36637;-68
2022/07/25 04:50:09;;;;;;;10.25;8.38;;;21.60;99.90;;;;;;4835394;29;37631;-69
2022/07/25 04:52:37;;;;;;;14.27;9.10;;;21.60;99.90;;;;;;4837384;29;39349;-62
2022/07/25 04:55:05;;;;;;;10.73;8.00;;;21.60;99.90;;;;;;4837413;29;38418;-62
2022/07/25 04:57:32;;;;;;;9.80;7.55;;;21.60;99.80;;;;;;4836880;29;36214;-61
2022/07/25 04:59:59;;;;;;;11.13;8.27;;;21.60;99.80;;;;;;4835863;29;37284;-61
2022/07/25 05:02:27;;;;;;;11.63;8.98;;;21.60;99.70;;;;;;4836452;29;37997;-61
2022/07/25 05:04:55;;;;;;;11.98;8.27;;;21.60;99.60;;;;;;4836469;29;37311;-62
2022/07/25 05:07:23;;;;;;;10.30;7.55;;;21.60;99.60;;;;;;4836256;29;36365;-68
2022/07/25 05:09:50;;;;;;;12.48;7.70;;;21.60;99.90;;;;;;4836329;29;37331;-69
2022/07/25 05:12:17;;;;;;;9.13;7.50;;;21.60;99.90;;;;;;4837395;29;36884;-68
2022/07/25 05:14:45;;;;;;;12.65;8.85;;;21.60;99.90;;;;;;4836881;29;40327;-62
2022/07/25 05:17:12;;;;;;;9.68;7.88;;;21.60;99.90;;;;;;4836829;29;38643;-62
2022/07/25 05:19:39;;;;;;;11.25;8.20;;;21.60;99.90;;;;;;4836487;29;36174;-68
2022/07/25 05:22:08;;;;;;;12.43;7.97;;;21.60;99.90;;;;;;4835962;29;38132;-68
2022/07/25 05:24:36;;;;;;;9.63;7.85;;;21.60;99.90;;;;;;4836948;29;38093;-61
2022/07/25 05:27:04;;;;;;;11.93;8.57;;;21.70;99.90;;;;;;4835884;29;36290;-62
2022/07/25 05:29:32;;;;;;;10.60;8.50;;;21.70;99.90;;;;;;4835855;29;37626;-61
2022/07/25 05:31:59;;;;;;;12.18;8.57;;;21.70;99.90;;;;;;4836262;29;36971;-62
2022/07/25 05:34:27;;;;;;;9.90;7.97;;;21.70;99.90;;;;;;4837846;29;37907;-68
2022/07/25 05:36:54;;;;;;;11.25;7.90;;;21.70;99.90;;;;;;4836740;29;37027;-68
2022/07/25 05:39:24;;;;;;;11.00;9.10;;;21.70;99.90;;;;;;4837058;29;38020;-68
2022/07/25 05:41:51;;;;;;;10.20;8.15;;;21.70;99.90;;;;;;4839436;29;38143;-61
2022/07/25 05:44:18;;;;;;;11.63;9.48;;;21.70;99.90;;;;;;4839706;29;36493;-67
2022/07/25 05:46:46;;;;;;;12.63;8.98;;;21.70;99.90;;;;;;4839522;29;37309;-68
2022/07/25 05:49:14;;;;;;;10.57;8.55;;;21.70;99.90;;;;;;4839822;29;36288;-62
2022/07/25 05:51:42;;;;;;;14.02;8.50;;;21.80;99.90;;;;;;4840435;29;38751;-68
2022/07/25 05:54:09;;;;;;;12.75;9.13;;;21.70;99.90;;;;;;4840156;29;38309;-69
2022/07/25 05:56:37;;;;;;;10.23;8.07;;;21.80;99.90;;;;;;4839411;29;36732;-61
2022/07/25 05:59:05;;;;;;;11.20;8.98;;;21.80;99.90;;;;;;4837923;29;37505;-68
2022/07/25 06:01:32;;;;;;;12.15;9.35;;;21.80;99.90;;;;;;4839088;29;37018;-68
2022/07/25 06:03:59;;;;;;;15.18;8.68;;;21.80;99.90;;;;;;4838988;29;37748;-68
2022/07/25 06:06:27;;;;;;;12.35;10.02;;;21.80;99.90;;;;;;4839590;29;37514;-69
2022/07/25 06:08:54;;;;;;;13.10;10.07;;;21.90;99.90;;;;;;4837208;29;39028;-69
2022/07/25 06:11:21;;;;;;;12.38;10.05;;;21.80;99.90;;;;;;4839564;29;38034;-69
2022/07/25 06:13:50;;;;;;;14.43;11.13;;;21.90;99.90;;;;;;4839216;29;37543;-68
2022/07/25 06:16:17;;;;;;;13.15;9.80;;;21.90;99.90;;;;;;4838953;29;36655;-61
2022/07/25 06:18:44;;;;;;;12.60;9.32;;;21.90;99.90;;;;;;4837618;29;36906;-68
2022/07/25 06:21:12;;;;;;;15.23;10.73;;;21.90;99.90;;;;;;4836064;29;38660;-61
2022/07/25 06:23:39;;;;;;;12.63;9.70;;;22.00;99.90;;;;;;4836939;29;38176;-62
2022/07/25 06:26:08;;;;;;;13.15;10.13;;;22.00;99.90;;;;;;4839495;29;37355;-62
2022/07/25 06:28:37;;;;;;;14.35;10.80;;;22.00;99.90;;;;;;4837616;29;37835;-69
2022/07/25 06:31:06;;;;;;;17.10;10.70;;;22.10;99.90;;;;;;4836424;29;37431;-69
2022/07/25 06:33:33;;;;;;;14.02;10.00;;;22.10;99.90;;;;;;4820984;29;37949;-69
2022/07/25 06:36:00;;;;;;;12.40;10.07;;;22.10;99.90;;;;;;4821256;29;37447;-69
2022/07/25 06:38:27;;;;;;;13.93;9.95;;;22.30;99.90;;;;;;4821192;29;37356;-69
2022/07/25 06:40:55;;;;;;;12.60;9.70;;;22.30;99.90;;;;;;4820159;29;37472;-69
2022/07/25 06:43:25;;;;;;;14.13;10.63;;;22.30;99.90;;;;;;4822292;29;37957;-69
2022/07/25 06:45:52;;;;;;;15.43;10.40;;;22.40;99.90;;;;;;4821766;29;35123;-68
2022/07/25 06:48:23;;;;;;;12.90;11.10;;;22.40;99.90;;;;;;4820155;29;37937;-69
2022/07/25 06:50:50;;;;;;;11.48;8.95;;;22.40;99.90;;;;;;4815747;29;38124;-69
2022/07/25 06:53:18;;;;;;;11.88;9.85;;;22.40;99.90;;;;;;4818870;29;37371;-69
2022/07/25 06:55:45;;;;;;;12.90;8.98;;;22.40;99.90;;;;;;4820641;29;36962;-69
2022/07/25 06:58:13;;;;;;;10.70;9.23;;;22.40;99.90;;;;;;4820812;29;38844;-69
2022/07/25 07:00:41;;;;;;;16.27;9.23;;;22.40;99.90;;;;;;4817731;29;37028;-69
2022/07/25 07:03:09;;;;;;;13.02;9.93;;;22.40;99.90;;;;;;4820209;29;37453;-69
2022/07/25 07:05:40;;;;;;;13.73;10.52;;;22.40;99.90;;;;;;4819291;29;36362;-69
2022/07/25 07:08:07;;;;;;;15.50;9.50;;;22.40;99.90;;;;;;4817798;29;38584;-69
2022/07/25 07:10:34;;;;;;;13.48;10.05;;;22.40;99.90;;;;;;4817284;29;37528;-69
2022/07/25 07:13:07;;;;;;;12.23;9.00;;;22.50;99.90;;;;;;4817681;29;38315;-69
2022/07/25 07:15:35;;;;;;;12.23;9.18;;;22.50;99.90;;;;;;4817666;29;35459;-69
2022/07/25 07:18:06;;;;;;;11.48;8.68;;;22.50;99.90;;;;;;4818307;29;38991;-69
2022/07/25 07:20:33;;;;;;;13.35;9.52;;;22.50;99.90;;;;;;4818821;29;38927;-69
2022/07/25 07:23:02;;;;;;;13.07;9.02;;;22.50;99.90;;;;;;4818108;29;37451;-69
2022/07/25 07:25:30;;;;;;;11.40;7.95;;;22.50;99.90;;;;;;4818167;29;36459;-69
2022/07/25 07:27:57;;;;;;;11.30;8.45;;;22.50;99.90;;;;;;4818681;29;37877;-69
2022/07/25 07:30:25;;;;;;;10.82;7.38;;;22.50;99.90;;;;;;4816659;29;38693;-69
2022/07/25 07:32:52;;;;;;;10.02;7.78;;;22.60;99.90;;;;;;4830646;29;37558;-69
2022/07/25 07:35:20;;;;;;;13.25;8.05;;;22.60;99.90;;;;;;4835489;29;35535;-69
2022/07/25 07:37:47;;;;;;;11.95;8.60;;;22.70;99.90;;;;;;4834002;29;37976;-69
2022/07/25 07:40:16;;;;;;;10.95;8.45;;;22.80;99.90;;;;;;4834325;29;38851;-69
2022/07/25 07:42:45;;;;;;;9.98;8.55;;;22.90;99.90;;;;;;4835420;29;39026;-69
2022/07/25 07:45:14;;;;;;;10.50;7.70;;;22.90;99.90;;;;;;4835825;29;36818;-69
2022/07/25 07:47:41;;;;;;;9.63;6.82;;;22.90;99.90;;;;;;4827130;29;37169;-69
2022/07/25 07:50:10;;;;;;;10.57;7.85;;;22.90;99.90;;;;;;4830524;29;38155;-69
2022/07/25 07:52:40;;;;;;;13.13;8.07;;;23.00;99.90;;;;;;4831605;29;39478;-69
2022/07/25 07:57:58;;;;;;;16.25;7.63;;;23.10;99.90;;;;;;4832558;29;39487;-69
2022/07/25 08:00:27;;;;;;;10.27;6.95;;;23.10;99.90;;;;;;4830542;29;37113;-69
2022/07/25 08:02:55;;;;;;;9.60;7.15;;;23.20;99.90;;;;;;4830214;29;37378;-69
2022/07/25 08:05:24;;;;;;;11.05;7.38;;;23.20;99.90;;;;;;4830721;29;35620;-69
2022/07/25 08:07:52;;;;;;;9.73;6.60;;;23.20;99.90;;;;;;4829262;29;36653;-69
2022/07/25 08:10:21;;;;;;;13.63;6.75;;;23.20;99.90;;;;;;4830067;29;37258;-68
2022/07/25 08:12:49;;;;;;;10.93;6.18;;;23.30;99.90;;;;;;4832894;29;39104;-69
2022/07/25 08:15:18;;;;;;;8.27;6.05;;;23.30;99.90;;;;;;4832008;29;36309;-68
2022/07/25 08:17:46;;;;;;;9.57;6.20;;;23.30;99.90;;;;;;4831568;29;38667;-68
2022/07/25 08:20:14;;;;;;;9.38;6.10;;;23.40;99.90;;;;;;4831980;29;38554;-68
2022/07/25 08:22:44;;;;;;;10.27;6.53;;;23.50;99.90;;;;;;4832271;29;40289;-69
2022/07/25 08:25:15;;;;;;;9.55;5.55;;;23.50;99.90;;;;;;4837441;29;38348;-68
2022/07/25 08:27:42;;;;;;;8.07;4.70;;;23.50;99.90;;;;;;4837202;29;35697;-68
2022/07/25 08:30:11;;;;;;;8.63;5.10;;;23.50;99.90;;;;;;4834988;29;39405;-68
2022/07/25 08:32:49;;;;;;;7.55;3.55;;;23.50;99.90;;;;;;4835809;29;37699;-69
2022/07/25 08:35:17;;;;;;;9.63;3.67;;;23.40;99.30;;;;;;4835600;29;36055;-68
2022/07/25 08:37:45;;;;;;;5.78;2.97;;;23.30;99.10;;;;;;4836354;29;37558;-68
2022/07/25 08:40:14;;;;;;;7.28;3.03;;;23.30;99.20;;;;;;4835628;29;39490;-68
2022/07/25 08:42:41;;;;;;;6.55;2.83;;;23.20;99.20;;;;;;4837142;29;38158;-68
2022/07/25 08:45:11;;;;;;;8.10;3.22;;;23.10;99.10;;;;;;4836635;29;37262;-68
2022/07/25 08:47:40;;;;;;;7.55;3.55;;;23.00;99.20;;;;;;4836552;29;40244;-67
2022/07/25 08:50:14;;;;;;;7.07;3.50;;;23.00;99.50;;;;;;4835907;29;38597;-69
2022/07/25 08:52:44;;;;;;;5.90;3.35;;;22.90;99.90;;;;;;4837576;29;37992;-69
2022/07/25 08:55:15;;;;;;;7.18;4.18;;;22.90;99.90;;;;;;4837415;29;35331;-69
2022/07/25 08:57:43;;;;;;;7.18;3.22;;;22.80;99.90;;;;;;4838033;29;36432;-69
2022/07/25 09:00:13;;;;;;;9.48;3.58;;;22.80;99.90;;;;;;4836550;29;36856;-68
2022/07/25 09:02:40;;;;;;;8.65;2.53;;;22.80;99.90;;;;;;4836685;29;37873;-68
2022/07/25 09:05:09;;;;;;;7.38;2.78;;;22.80;99.70;;;;;;4836277;29;36496;-68
2022/07/25 09:07:38;;;;;;;4.43;2.05;;;22.80;99.30;;;;;;4835238;29;37408;-68
2022/07/25 09:10:15;;;;;;;5.40;2.22;;;22.80;99.20;;;;;;4834645;29;38571;-68
2022/07/25 09:12:50;;;;;;;5.05;1.95;;;22.90;99.40;;;;;;4835344;29;37616;-68
2022/07/25 09:15:24;;;;;;;6.32;2.75;;;22.90;99.30;;;;;;4833570;29;37050;-68
2022/07/25 09:17:51;;;;;;;5.72;1.85;;;22.90;99.30;;;;;;4832567;29;38704;-68
2022/07/25 09:20:21;;;;;;;12.73;2.78;;;22.90;99.20;;;;;;4834890;29;38674;-68
2022/07/25 09:22:48;;;;;;;6.15;2.33;;;22.90;98.70;;;;;;4834091;29;36694;-68
2022/07/25 09:25:28;;;;;;;4.38;1.75;;;22.80;99.00;;;;;;4835142;29;36622;-68
2022/07/25 09:27:57;;;;;;;5.25;2.03;;;22.80;99.40;;;;;;4833862;29;37666;-68
2022/07/25 09:30:24;;;;;;;2.47;1.40;;;22.80;99.60;;;;;;4833105;29;38245;-68
2022/07/25 09:32:59;;;;;;;7.18;2.20;;;22.80;99.90;;;;;;4832329;29;36496;-68
2022/07/25 09:35:33;;;;;;;3.65;1.63;;;22.90;99.90;;;;;;4834234;29;39585;-67
2022/07/25 09:38:11;;;;;;;4.97;1.63;;;22.90;99.70;;;;;;4835044;29;38383;-67
2022/07/25 09:40:39;;;;;;;5.03;1.80;;;22.90;99.40;;;;;;4834207;29;38125;-69
2022/07/25 09:43:07;;;;;;;5.05;1.63;;;22.90;99.30;;;;;;4833829;29;37659;-69
2022/07/25 09:45:35;;;;;;;4.95;1.95;;;23.00;99.30;;;;;;4835128;29;37088;-69
2022/07/25 09:48:04;;;;;;;5.50;1.70;;;23.00;99.00;;;;;;4835234;29;38612;-69
2022/07/25 09:50:34;;;;;;;3.97;1.83;;;23.10;99.10;;;;;;4835048;29;36901;-69
2022/07/25 09:53:02;;;;;;;2.60;1.60;;;23.20;98.90;;;;;;4834553;29;38482;-68
2022/07/25 09:55:30;;;;;;;4.10;1.80;;;23.20;98.60;;;;;;4833994;29;36309;-69
2022/07/25 09:57:58;;;;;;;4.00;1.75;;;23.20;98.30;;;;;;4833934;29;37350;-69
2022/07/25 10:00:27;;;;;;;4.78;1.98;;;23.30;98.30;;;;;;4832151;29;38557;-68
2022/07/25 10:03:15;;;;;;;5.70;2.03;;;23.30;98.10;;;;;;4834657;29;37627;-69
2022/07/25 10:05:57;;;;;;;4.30;1.90;;;23.30;97.80;;;;;;4834165;29;37170;-69
2022/07/25 10:08:25;;;;;;;2.97;1.40;;;23.20;97.90;;;;;;4835692;29;36602;-69
2022/07/25 10:10:53;;;;;;;7.68;2.22;;;23.20;97.90;;;;;;4834400;29;38730;-68
2022/07/25 10:13:30;;;;;;;6.18;2.30;;;23.20;98.00;;;;;;4834408;29;38058;-69
2022/07/25 10:15:58;;;;;;;7.07;2.10;;;23.20;98.10;;;;;;4833622;29;37666;-68
2022/07/25 10:18:27;;;;;;;5.60;1.92;;;23.20;98.20;;;;;;4834939;29;36386;-69
2022/07/25 10:21:09;;;;;;;7.43;2.50;;;23.10;98.20;;;;;;4835029;29;37251;-69
2022/07/25 10:23:36;;;;;;;5.60;2.40;;;23.10;98.40;;;;;;4835145;29;39415;-68
2022/07/25 10:26:08;;;;;;;5.40;2.53;;;23.00;99.00;;;;;;4835808;29;37344;-69
2022/07/25 10:28:44;;;;;;;5.63;2.60;;;23.00;99.20;;;;;;4837287;29;38358;-69
2022/07/25 10:31:21;;;;;;;6.82;2.20;;;23.00;99.60;;;;;;4837481;29;39161;-68
2022/07/25 10:33:51;;;;;;;6.80;2.55;;;22.90;99.70;;;;;;4833689;29;38766;-69
2022/07/25 10:36:21;;;;;;;7.65;2.50;;;22.80;99.70;;;;;;4835618;29;37575;-69
2022/07/25 10:38:52;;;;;;;7.75;2.17;;;22.80;99.70;;;;;;4834143;29;37798;-69
2022/07/25 10:41:25;;;;;;;6.10;2.00;;;22.70;99.70;;;;;;4833864;29;38489;-69
2022/07/25 10:43:56;;;;;;;6.63;2.53;;;22.60;99.90;;;;;;4834098;29;37375;-69
2022/07/25 10:46:31;;;;;;;4.15;2.05;;;22.60;99.90;;;;;;4835218;29;36238;-68
2022/07/25 10:49:02;;;;;;;6.63;2.33;;;22.60;99.90;;;;;;4833778;29;37497;-69
2022/07/25 10:51:33;;;;;;;7.70;1.80;;;22.60;99.90;;;;;;4834071;29;37402;-69
2022/07/25 10:54:12;;;;;;;5.60;2.17;;;22.70;99.90;;;;;;4833846;29;36497;-68
2022/07/25 10:56:51;;;;;;;6.88;2.15;;;22.80;99.90;;;;;;4834109;29;36113;-68
2022/07/25 10:59:27;;;;;;;5.95;2.00;;;22.90;99.90;;;;;;4827777;29;37045;-68
2022/07/25 11:01:54;;;;;;;6.13;2.33;;;23.10;99.90;;;;;;4831737;29;36962;-69
2022/07/25 11:04:24;;;;;;;6.55;1.70;;;23.30;99.90;;;;;;4832897;29;37633;-69
2022/07/25 11:06:53;;;;;;;8.57;2.38;;;23.40;99.90;;;;;;4833465;29;37852;-69
2022/07/25 11:09:23;;;;;;;5.38;2.10;;;23.40;99.90;;;;;;4832035;29;37966;-68
2022/07/25 11:11:52;;;;;;;7.95;2.05;;;23.40;99.90;;;;;;4833702;29;39338;-68
2022/07/25 11:14:21;;;;;;;6.45;2.38;;;23.30;99.90;;;;;;4833513;29;38528;-68
2022/07/25 11:16:51;;;;;;;8.02;2.30;;;23.20;99.90;;;;;;4831479;29;37189;-67
2022/07/25 11:19:20;;;;;;;15.68;2.45;;;23.20;99.90;;;;;;4832356;29;37501;-68
2022/07/25 11:21:49;;;;;;;7.05;2.10;;;23.20;99.90;;;;;;4831245;29;38685;-68
2022/07/25 11:24:22;;;;;;;7.63;2.08;;;23.20;99.90;;;;;;4831882;29;37499;-68
2022/07/25 11:26:51;;;;;;;6.30;1.88;;;23.20;99.90;;;;;;4831646;29;36896;-68
2022/07/25 11:29:25;;;;;;;8.60;2.10;;;23.20;99.90;;;;;;4832653;29;38620;-68
2022/07/25 11:31:54;;;;;;;10.27;2.10;;;23.30;99.90;;;;;;4832937;29;37920;-68
2022/07/25 11:34:26;;;;;;;9.18;2.00;;;23.40;99.90;;;;;;4836037;29;38019;-68
2022/07/25 11:36:56;;;;;;;11.05;2.78;;;23.70;99.90;;;;;;4835287;29;36205;-68
2022/07/25 11:39:26;;;;;;;9.85;2.40;;;23.80;99.90;;;;;;4835334;29;38722;-68
2022/07/25 11:42:01;;;;;;;7.90;2.03;;;23.80;99.50;;;;;;4835401;29;37551;-67
2022/07/25 11:44:36;;;;;;;14.45;2.38;;;23.70;99.10;;;;;;4836187;29;37539;-68
2022/07/25 11:47:05;;;;;;;6.53;2.28;;;23.60;99.10;;;;;;4836680;29;36273;-68
2022/07/25 11:49:44;;;;;;;12.02;2.47;;;23.50;99.00;;;;;;4835711;29;38818;-67
2022/07/25 11:52:20;;;;;;;11.65;2.47;;;23.40;98.90;;;;;;4832114;29;39014;-67
2022/07/25 11:54:56;;;;;;;6.72;2.20;;;23.40;99.20;;;;;;4831011;29;38369;-69
2022/07/25 11:57:24;;;;;;;9.32;2.42;;;23.40;99.40;;;;;;4829909;29;35910;-70
2022/07/25 11:59:52;;;;;;;9.32;2.42;;;23.40;99.40;;;;;;4830077;29;39252;-69
2022/07/25 12:02:24;;;;;;;8.27;1.80;;;23.50;99.10;;;;;;4830049;29;38918;-69
2022/07/25 12:04:56;;;;;;;9.30;2.00;;;23.50;98.90;;;;;;4829412;29;37806;-69
2022/07/25 12:07:43;;;;;;;6.93;2.37;;;23.50;98.50;;;;;;4828816;29;36277;-69
2022/07/25 12:10:15;;;;;;;8.57;2.10;;;23.40;98.60;;;;;;4831315;29;38307;-69
2022/07/25 12:12:50;;;;;;;7.57;2.33;;;23.40;98.80;;;;;;4831616;29;37887;-69
2022/07/25 12:15:20;;;;;;;8.18;2.40;;;23.50;98.90;;;;;;4829853;29;35551;-70
2022/07/25 12:17:48;;;;;;;7.68;2.15;;;23.40;98.70;;;;;;4829856;29;36644;-70
2022/07/25 12:20:17;;;;;;;10.38;2.25;;;23.40;98.60;;;;;;4830252;29;38233;-71
2022/07/25 12:22:45;;;;;;;8.52;2.28;;;23.50;98.80;;;;;;4830242;29;40535;-69
2022/07/25 12:25:17;;;;;;;11.18;2.67;;;23.60;98.60;;;;;;4834997;29;37777;-69
2022/07/25 12:27:45;;;;;;;4.22;1.50;;;23.70;98.40;;;;;;4834224;29;37486;-69
2022/07/25 12:30:16;;;;;;;5.38;1.77;;;23.70;97.80;;;;;;4834021;29;38580;-70
2022/07/25 12:32:43;;;;;;;6.72;1.92;;;23.70;97.30;;;;;;4834610;29;38277;-69
2022/07/25 12:35:13;;;;;;;8.82;1.95;;;23.70;97.20;;;;;;4835339;29;36477;-69
2022/07/25 12:37:41;;;;;;;9.23;1.98;;;23.70;96.90;;;;;;4836012;29;38170;-70
2022/07/25 12:40:09;;;;;;;11.93;1.88;;;23.70;97.10;;;;;;4836234;29;36491;-69
2022/07/25 12:42:38;;;;;;;8.52;2.50;;;23.70;96.60;;;;;;4837517;29;36753;-69
2022/07/25 12:45:07;;;;;;;10.15;2.22;;;23.70;96.20;;;;;;4836614;29;38729;-69
2022/07/25 12:47:35;;;;;;;9.07;1.95;;;23.50;96.00;;;;;;4835655;29;37468;-70
2022/07/25 12:50:04;;;;;;;6.47;1.70;;;23.50;96.20;;;;;;4835267;29;36390;-69
2022/07/25 12:52:32;;;;;;;5.63;1.88;;;23.40;96.40;;;;;;4836590;29;38156;-70
2022/07/25 12:54:59;;;;;;;7.57;1.88;;;23.40;96.10;;;;;;4836273;29;38505;-70